sensor_id;sensor_type;location;lat;lon;timestamp;P1;durP1;ratioP1;P2;durP2;ratioP2
57810;SDS011;43640;47.550;7.590;2022-09-09T00:03:45;8.07;;;2.03;;
57810;SDS011;43640;47.550;7.590;2022-09-09T00:08:03;3.80;;;1.80;;
57810;SDS011;43640;47.550;7.590;2022-09-09T00:10:09;8.15;;;1.55;;
57810;SDS011;43640;47.550;7.590;2022-09-09T00:12:15;2.13;;;1.40;;
57810;SDS011;43640;47.550;7.590;2022-09-09T00:14:21;4.22;;;1.45;;
57810;SDS011;43640;47.550;7.590;2022-09-09T00:16:24;2.30;;;1.50;;
57810;SDS011;43640;47.550;7.590;2022-09-09T00:22:49;3.53;;;1.35;;
57810;SDS011;43640;47.550;7.590;2022-09-09T00:24:53;4.88;;;1.20;;
57810;SDS011;43640;47.550;7.590;2022-09-09T00:27:04;2.22;;;1.08;;
57810;SDS011;43640;47.550;7.590;2022-09-09T00:31:13;2.50;;;0.90;;
57810;SDS011;43640;47.550;7.590;2022-09-09T00:33:22;5.40;;;1.25;;
57810;SDS011;43640;47.550;7.590;2022-09-09T00:37:26;2.65;;;1.65;;
57810;SDS011;43640;47.550;7.590;2022-09-09T00:39:31;3.75;;;1.70;;
57810;SDS011;43640;47.550;7.590;2022-09-09T00:43:44;2.35;;;1.02;;
57810;SDS011;43640;47.550;7.590;2022-09-09T00:47:57;1.38;;;1.10;;
57810;SDS011;43640;47.550;7.590;2022-09-09T00:54:26;3.15;;;1.10;;
57810;SDS011;43640;47.550;7.590;2022-09-09T00:56:42;4.15;;;1.20;;
57810;SDS011;43640;47.550;7.590;2022-09-09T00:58:49;3.28;;;1.20;;
57810;SDS011;43640;47.550;7.590;2022-09-09T01:00:56;1.35;;;0.98;;
57810;SDS011;43640;47.550;7.590;2022-09-09T01:03:12;3.80;;;0.80;;
57810;SDS011;43640;47.550;7.590;2022-09-09T01:05:24;2.42;;;1.00;;
57810;SDS011;43640;47.550;7.590;2022-09-09T01:07:28;5.18;;;1.20;;
57810;SDS011;43640;47.550;7.590;2022-09-09T01:14:02;3.35;;;0.88;;
57810;SDS011;43640;47.550;7.590;2022-09-09T01:16:06;2.45;;;0.90;;
57810;SDS011;43640;47.550;7.590;2022-09-09T01:18:13;2.40;;;0.90;;
57810;SDS011;43640;47.550;7.590;2022-09-09T01:20:25;3.05;;;0.90;;
57810;SDS011;43640;47.550;7.590;2022-09-09T01:22:44;2.65;;;1.00;;
57810;SDS011;43640;47.550;7.590;2022-09-09T01:25:01;1.67;;;0.80;;
57810;SDS011;43640;47.550;7.590;2022-09-09T01:27:08;4.57;;;1.10;;
57810;SDS011;43640;47.550;7.590;2022-09-09T01:29:14;2.03;;;1.20;;
57810;SDS011;43640;47.550;7.590;2022-09-09T01:31:19;2.55;;;1.00;;
57810;SDS011;43640;47.550;7.590;2022-09-09T01:33:22;1.88;;;1.45;;
57810;SDS011;43640;47.550;7.590;2022-09-09T01:37:34;4.32;;;1.33;;
57810;SDS011;43640;47.550;7.590;2022-09-09T01:39:36;6.97;;;0.98;;
57810;SDS011;43640;47.550;7.590;2022-09-09T01:41:38;2.20;;;0.85;;
57810;SDS011;43640;47.550;7.590;2022-09-09T01:43:39;2.53;;;1.08;;
57810;SDS011;43640;47.550;7.590;2022-09-09T01:45:40;4.53;;;1.20;;
57810;SDS011;43640;47.550;7.590;2022-09-09T01:47:43;2.58;;;0.90;;
57810;SDS011;43640;47.550;7.590;2022-09-09T01:49:45;3.53;;;0.85;;
57810;SDS011;43640;47.550;7.590;2022-09-09T01:51:48;2.03;;;0.70;;
57810;SDS011;43640;47.550;7.590;2022-09-09T01:53:50;2.35;;;0.70;;
57810;SDS011;43640;47.550;7.590;2022-09-09T01:56:04;1.20;;;0.73;;
57810;SDS011;43640;47.550;7.590;2022-09-09T02:00:14;1.65;;;0.90;;
57810;SDS011;43640;47.550;7.590;2022-09-09T02:06:39;1.67;;;0.60;;
57810;SDS011;43640;47.550;7.590;2022-09-09T02:10:47;1.17;;;0.70;;
57810;SDS011;43640;47.550;7.590;2022-09-09T02:12:53;3.53;;;1.10;;
57810;SDS011;43640;47.550;7.590;2022-09-09T02:14:59;1.27;;;0.82;;
57810;SDS011;43640;47.550;7.590;2022-09-09T02:17:03;1.20;;;0.90;;
57810;SDS011;43640;47.550;7.590;2022-09-09T02:19:09;2.33;;;1.00;;
57810;SDS011;43640;47.550;7.590;2022-09-09T02:21:13;1.23;;;1.00;;
57810;SDS011;43640;47.550;7.590;2022-09-09T02:23:16;2.30;;;0.85;;
57810;SDS011;43640;47.550;7.590;2022-09-09T02:25:20;1.75;;;1.02;;
57810;SDS011;43640;47.550;7.590;2022-09-09T02:27:22;4.13;;;0.82;;
57810;SDS011;43640;47.550;7.590;2022-09-09T02:29:25;1.10;;;0.80;;
57810;SDS011;43640;47.550;7.590;2022-09-09T02:31:27;1.58;;;0.80;;
57810;SDS011;43640;47.550;7.590;2022-09-09T02:33:30;1.80;;;0.88;;
57810;SDS011;43640;47.550;7.590;2022-09-09T02:35:35;1.58;;;1.23;;
57810;SDS011;43640;47.550;7.590;2022-09-09T02:37:39;2.90;;;1.25;;
57810;SDS011;43640;47.550;7.590;2022-09-09T02:39:40;4.38;;;1.55;;
57810;SDS011;43640;47.550;7.590;2022-09-09T02:41:42;2.35;;;1.50;;
57810;SDS011;43640;47.550;7.590;2022-09-09T02:43:43;2.78;;;1.73;;
57810;SDS011;43640;47.550;7.590;2022-09-09T02:45:50;5.63;;;1.65;;
57810;SDS011;43640;47.550;7.590;2022-09-09T02:50:57;2.30;;;1.67;;
57810;SDS011;43640;47.550;7.590;2022-09-09T02:52:42;2.92;;;1.60;;
57810;SDS011;43640;47.550;7.590;2022-09-09T02:54:46;2.10;;;1.45;;
57810;SDS011;43640;47.550;7.590;2022-09-09T02:56:50;2.78;;;1.63;;
57810;SDS011;43640;47.550;7.590;2022-09-09T02:58:52;3.53;;;1.58;;
57810;SDS011;43640;47.550;7.590;2022-09-09T03:00:53;4.22;;;2.00;;
57810;SDS011;43640;47.550;7.590;2022-09-09T03:02:55;4.20;;;1.60;;
57810;SDS011;43640;47.550;7.590;2022-09-09T03:04:57;4.05;;;1.90;;
57810;SDS011;43640;47.550;7.590;2022-09-09T03:06:59;3.83;;;1.83;;
57810;SDS011;43640;47.550;7.590;2022-09-09T03:09:00;2.67;;;1.42;;
57810;SDS011;43640;47.550;7.590;2022-09-09T03:11:03;5.05;;;1.88;;
57810;SDS011;43640;47.550;7.590;2022-09-09T03:13:05;4.85;;;1.67;;
57810;SDS011;43640;47.550;7.590;2022-09-09T03:15:06;4.93;;;1.90;;
57810;SDS011;43640;47.550;7.590;2022-09-09T03:17:08;3.67;;;2.00;;
57810;SDS011;43640;47.550;7.590;2022-09-09T03:19:10;4.68;;;2.35;;
57810;SDS011;43640;47.550;7.590;2022-09-09T03:21:11;3.70;;;2.10;;
57810;SDS011;43640;47.550;7.590;2022-09-09T03:23:12;4.75;;;2.30;;
57810;SDS011;43640;47.550;7.590;2022-09-09T03:25:16;4.45;;;2.42;;
57810;SDS011;43640;47.550;7.590;2022-09-09T03:27:17;6.00;;;3.20;;
57810;SDS011;43640;47.550;7.590;2022-09-09T03:29:20;6.10;;;2.60;;
57810;SDS011;43640;47.550;7.590;2022-09-09T03:31:22;6.78;;;2.88;;
57810;SDS011;43640;47.550;7.590;2022-09-09T03:33:24;7.15;;;2.63;;
57810;SDS011;43640;47.550;7.590;2022-09-09T03:35:25;5.45;;;2.67;;
57810;SDS011;43640;47.550;7.590;2022-09-09T03:37:26;3.53;;;2.47;;
57810;SDS011;43640;47.550;7.590;2022-09-09T03:39:28;3.50;;;2.03;;
57810;SDS011;43640;47.550;7.590;2022-09-09T03:41:30;4.97;;;2.15;;
57810;SDS011;43640;47.550;7.590;2022-09-09T03:43:35;3.83;;;2.03;;
57810;SDS011;43640;47.550;7.590;2022-09-09T03:45:38;4.50;;;2.45;;
57810;SDS011;43640;47.550;7.590;2022-09-09T03:47:39;4.72;;;1.98;;
57810;SDS011;43640;47.550;7.590;2022-09-09T03:49:41;5.80;;;2.03;;
57810;SDS011;43640;47.550;7.590;2022-09-09T03:51:42;5.72;;;2.30;;
57810;SDS011;43640;47.550;7.590;2022-09-09T03:53:43;4.68;;;1.83;;
57810;SDS011;43640;47.550;7.590;2022-09-09T03:55:52;6.13;;;2.25;;
57810;SDS011;43640;47.550;7.590;2022-09-09T03:57:55;2.83;;;1.83;;
57810;SDS011;43640;47.550;7.590;2022-09-09T03:59:56;5.28;;;1.80;;
57810;SDS011;43640;47.550;7.590;2022-09-09T04:01:58;2.90;;;1.80;;
57810;SDS011;43640;47.550;7.590;2022-09-09T04:04:00;5.00;;;2.05;;
57810;SDS011;43640;47.550;7.590;2022-09-09T04:06:03;3.72;;;1.80;;
57810;SDS011;43640;47.550;7.590;2022-09-09T04:08:06;3.67;;;1.85;;
57810;SDS011;43640;47.550;7.590;2022-09-09T04:10:07;2.78;;;1.67;;
57810;SDS011;43640;47.550;7.590;2022-09-09T04:12:09;4.65;;;2.15;;
57810;SDS011;43640;47.550;7.590;2022-09-09T04:14:14;3.53;;;1.90;;
57810;SDS011;43640;47.550;7.590;2022-09-09T04:16:15;4.53;;;2.28;;
57810;SDS011;43640;47.550;7.590;2022-09-09T04:18:16;4.72;;;2.22;;
57810;SDS011;43640;47.550;7.590;2022-09-09T04:20:20;6.13;;;2.50;;
57810;SDS011;43640;47.550;7.590;2022-09-09T04:22:23;5.07;;;2.53;;
57810;SDS011;43640;47.550;7.590;2022-09-09T04:24:24;4.85;;;2.53;;
57810;SDS011;43640;47.550;7.590;2022-09-09T04:26:26;5.68;;;2.50;;
57810;SDS011;43640;47.550;7.590;2022-09-09T04:28:28;7.65;;;2.90;;
57810;SDS011;43640;47.550;7.590;2022-09-09T04:30:30;6.68;;;2.47;;
57810;SDS011;43640;47.550;7.590;2022-09-09T04:32:32;6.95;;;2.50;;
57810;SDS011;43640;47.550;7.590;2022-09-09T04:34:33;6.90;;;2.70;;
57810;SDS011;43640;47.550;7.590;2022-09-09T04:36:34;6.22;;;2.80;;
57810;SDS011;43640;47.550;7.590;2022-09-09T04:38:36;8.45;;;2.80;;
57810;SDS011;43640;47.550;7.590;2022-09-09T04:40:38;5.80;;;2.58;;
57810;SDS011;43640;47.550;7.590;2022-09-09T04:42:43;4.03;;;2.33;;
57810;SDS011;43640;47.550;7.590;2022-09-09T04:44:45;5.53;;;2.78;;
57810;SDS011;43640;47.550;7.590;2022-09-09T04:46:46;6.85;;;2.95;;
57810;SDS011;43640;47.550;7.590;2022-09-09T04:48:48;8.27;;;2.72;;
57810;SDS011;43640;47.550;7.590;2022-09-09T04:51:06;6.07;;;2.85;;
57810;SDS011;43640;47.550;7.590;2022-09-09T04:53:07;7.78;;;2.85;;
57810;SDS011;43640;47.550;7.590;2022-09-09T04:55:08;9.10;;;3.63;;
57810;SDS011;43640;47.550;7.590;2022-09-09T04:57:10;5.82;;;3.13;;
57810;SDS011;43640;47.550;7.590;2022-09-09T04:59:18;10.00;;;3.53;;
57810;SDS011;43640;47.550;7.590;2022-09-09T05:01:20;6.30;;;3.47;;
57810;SDS011;43640;47.550;7.590;2022-09-09T05:03:22;7.18;;;3.25;;
57810;SDS011;43640;47.550;7.590;2022-09-09T05:05:24;8.40;;;3.30;;
57810;SDS011;43640;47.550;7.590;2022-09-09T05:07:26;6.47;;;3.20;;
57810;SDS011;43640;47.550;7.590;2022-09-09T05:09:28;7.38;;;3.38;;
57810;SDS011;43640;47.550;7.590;2022-09-09T05:11:30;8.23;;;3.25;;
57810;SDS011;43640;47.550;7.590;2022-09-09T05:13:33;7.20;;;3.42;;
57810;SDS011;43640;47.550;7.590;2022-09-09T05:15:39;5.90;;;3.10;;
57810;SDS011;43640;47.550;7.590;2022-09-09T05:17:41;9.00;;;3.90;;
57810;SDS011;43640;47.550;7.590;2022-09-09T05:19:43;9.57;;;3.95;;
57810;SDS011;43640;47.550;7.590;2022-09-09T05:21:45;7.30;;;3.40;;
57810;SDS011;43640;47.550;7.590;2022-09-09T05:23:46;9.48;;;4.03;;
57810;SDS011;43640;47.550;7.590;2022-09-09T05:25:57;8.85;;;4.00;;
57810;SDS011;43640;47.550;7.590;2022-09-09T05:27:59;6.47;;;3.80;;
57810;SDS011;43640;47.550;7.590;2022-09-09T05:30:00;6.88;;;3.60;;
57810;SDS011;43640;47.550;7.590;2022-09-09T05:32:01;8.00;;;3.72;;
57810;SDS011;43640;47.550;7.590;2022-09-09T05:34:03;7.28;;;3.58;;
57810;SDS011;43640;47.550;7.590;2022-09-09T05:36:05;4.28;;;3.15;;
57810;SDS011;43640;47.550;7.590;2022-09-09T05:38:07;7.10;;;3.10;;
57810;SDS011;43640;47.550;7.590;2022-09-09T05:40:09;8.02;;;3.42;;
57810;SDS011;43640;47.550;7.590;2022-09-09T05:42:12;4.80;;;2.70;;
57810;SDS011;43640;47.550;7.590;2022-09-09T05:44:13;5.63;;;3.17;;
57810;SDS011;43640;47.550;7.590;2022-09-09T05:46:16;8.73;;;3.50;;
57810;SDS011;43640;47.550;7.590;2022-09-09T05:48:18;8.98;;;3.00;;
57810;SDS011;43640;47.550;7.590;2022-09-09T05:50:19;8.73;;;2.80;;
57810;SDS011;43640;47.550;7.590;2022-09-09T05:52:20;5.45;;;2.80;;
57810;SDS011;43640;47.550;7.590;2022-09-09T05:54:22;6.55;;;3.38;;
57810;SDS011;43640;47.550;7.590;2022-09-09T05:56:23;5.38;;;2.83;;
57810;SDS011;43640;47.550;7.590;2022-09-09T05:58:26;5.45;;;2.78;;
57810;SDS011;43640;47.550;7.590;2022-09-09T06:00:27;5.40;;;2.83;;
57810;SDS011;43640;47.550;7.590;2022-09-09T06:02:28;7.20;;;3.10;;
57810;SDS011;43640;47.550;7.590;2022-09-09T06:04:30;5.05;;;3.00;;
57810;SDS011;43640;47.550;7.590;2022-09-09T06:06:33;7.90;;;3.45;;
57810;SDS011;43640;47.550;7.590;2022-09-09T06:08:39;5.45;;;3.10;;
57810;SDS011;43640;47.550;7.590;2022-09-09T06:10:40;8.18;;;3.00;;
57810;SDS011;43640;47.550;7.590;2022-09-09T06:12:42;9.30;;;2.97;;
57810;SDS011;43640;47.550;7.590;2022-09-09T06:14:43;5.72;;;2.92;;
57810;SDS011;43640;47.550;7.590;2022-09-09T06:16:46;3.70;;;2.17;;
57810;SDS011;43640;47.550;7.590;2022-09-09T06:18:48;6.10;;;2.28;;
57810;SDS011;43640;47.550;7.590;2022-09-09T06:20:56;6.68;;;2.30;;
57810;SDS011;43640;47.550;7.590;2022-09-09T06:22:58;5.63;;;2.00;;
57810;SDS011;43640;47.550;7.590;2022-09-09T06:24:59;4.47;;;2.10;;
57810;SDS011;43640;47.550;7.590;2022-09-09T06:27:02;4.55;;;2.30;;
57810;SDS011;43640;47.550;7.590;2022-09-09T06:29:03;5.07;;;2.38;;
57810;SDS011;43640;47.550;7.590;2022-09-09T06:31:06;5.35;;;1.92;;
57810;SDS011;43640;47.550;7.590;2022-09-09T06:33:07;4.57;;;2.30;;
57810;SDS011;43640;47.550;7.590;2022-09-09T06:35:10;5.93;;;2.35;;
57810;SDS011;43640;47.550;7.590;2022-09-09T06:37:11;9.55;;;3.13;;
57810;SDS011;43640;47.550;7.590;2022-09-09T06:39:13;6.80;;;2.35;;
57810;SDS011;43640;47.550;7.590;2022-09-09T06:41:18;4.07;;;2.10;;
57810;SDS011;43640;47.550;7.590;2022-09-09T06:43:20;5.55;;;2.80;;
57810;SDS011;43640;47.550;7.590;2022-09-09T06:45:21;8.77;;;3.20;;
57810;SDS011;43640;47.550;7.590;2022-09-09T06:47:23;6.78;;;3.22;;
57810;SDS011;43640;47.550;7.590;2022-09-09T06:49:25;7.75;;;3.42;;
57810;SDS011;43640;47.550;7.590;2022-09-09T06:51:27;6.65;;;2.90;;
57810;SDS011;43640;47.550;7.590;2022-09-09T06:53:29;7.22;;;3.13;;
57810;SDS011;43640;47.550;7.590;2022-09-09T06:55:31;5.75;;;3.08;;
57810;SDS011;43640;47.550;7.590;2022-09-09T06:57:32;4.82;;;2.50;;
57810;SDS011;43640;47.550;7.590;2022-09-09T06:59:38;3.78;;;2.20;;
57810;SDS011;43640;47.550;7.590;2022-09-09T07:01:39;7.63;;;2.10;;
57810;SDS011;43640;47.550;7.590;2022-09-09T07:03:42;5.95;;;2.53;;
57810;SDS011;43640;47.550;7.590;2022-09-09T07:05:53;5.18;;;2.42;;
57810;SDS011;43640;47.550;7.590;2022-09-09T07:07:54;6.40;;;3.47;;
57810;SDS011;43640;47.550;7.590;2022-09-09T07:09:56;6.88;;;2.58;;
57810;SDS011;43640;47.550;7.590;2022-09-09T07:11:57;4.22;;;1.83;;
57810;SDS011;43640;47.550;7.590;2022-09-09T07:14:00;3.35;;;1.50;;
57810;SDS011;43640;47.550;7.590;2022-09-09T07:16:05;4.07;;;1.60;;
57810;SDS011;43640;47.550;7.590;2022-09-09T07:18:07;4.05;;;1.50;;
57810;SDS011;43640;47.550;7.590;2022-09-09T07:20:10;3.15;;;1.52;;
57810;SDS011;43640;47.550;7.590;2022-09-09T07:22:11;3.80;;;1.60;;
57810;SDS011;43640;47.550;7.590;2022-09-09T07:24:13;3.33;;;1.70;;
57810;SDS011;43640;47.550;7.590;2022-09-09T07:26:16;2.60;;;1.00;;
57810;SDS011;43640;47.550;7.590;2022-09-09T07:28:18;4.25;;;1.80;;
57810;SDS011;43640;47.550;7.590;2022-09-09T07:30:19;2.70;;;1.17;;
57810;SDS011;43640;47.550;7.590;2022-09-09T07:32:27;3.38;;;1.40;;
57810;SDS011;43640;47.550;7.590;2022-09-09T07:34:28;2.45;;;1.08;;
57810;SDS011;43640;47.550;7.590;2022-09-09T07:36:31;1.33;;;0.95;;
57810;SDS011;43640;47.550;7.590;2022-09-09T07:38:46;3.42;;;0.85;;
57810;SDS011;43640;47.550;7.590;2022-09-09T07:40:48;2.58;;;1.02;;
57810;SDS011;43640;47.550;7.590;2022-09-09T07:42:49;1.65;;;0.90;;
57810;SDS011;43640;47.550;7.590;2022-09-09T07:44:50;3.25;;;0.90;;
57810;SDS011;43640;47.550;7.590;2022-09-09T07:46:55;6.95;;;1.00;;
57810;SDS011;43640;47.550;7.590;2022-09-09T07:48:57;2.25;;;0.98;;
57810;SDS011;43640;47.550;7.590;2022-09-09T07:53:06;2.50;;;1.20;;
57810;SDS011;43640;47.550;7.590;2022-09-09T07:55:08;2.33;;;1.00;;
57810;SDS011;43640;47.550;7.590;2022-09-09T07:57:10;2.83;;;1.00;;
57810;SDS011;43640;47.550;7.590;2022-09-09T07:59:11;4.82;;;0.90;;
57810;SDS011;43640;47.550;7.590;2022-09-09T08:01:14;2.78;;;1.10;;
57810;SDS011;43640;47.550;7.590;2022-09-09T08:03:15;4.00;;;1.20;;
57810;SDS011;43640;47.550;7.590;2022-09-09T08:05:17;1.60;;;0.65;;
57810;SDS011;43640;47.550;7.590;2022-09-09T08:07:19;3.75;;;0.80;;
57810;SDS011;43640;47.550;7.590;2022-09-09T08:09:22;2.33;;;0.70;;
57810;SDS011;43640;47.550;7.590;2022-09-09T08:11:27;2.08;;;0.95;;
57810;SDS011;43640;47.550;7.590;2022-09-09T08:13:28;3.80;;;1.20;;
57810;SDS011;43640;47.550;7.590;2022-09-09T08:15:31;2.20;;;0.63;;
57810;SDS011;43640;47.550;7.590;2022-09-09T08:17:33;2.65;;;0.82;;
57810;SDS011;43640;47.550;7.590;2022-09-09T08:19:34;3.28;;;0.90;;
57810;SDS011;43640;47.550;7.590;2022-09-09T08:21:37;2.40;;;0.70;;
57810;SDS011;43640;47.550;7.590;2022-09-09T08:23:40;2.17;;;0.98;;
57810;SDS011;43640;47.550;7.590;2022-09-09T08:25:42;2.25;;;0.80;;
57810;SDS011;43640;47.550;7.590;2022-09-09T08:27:43;2.30;;;0.88;;
57810;SDS011;43640;47.550;7.590;2022-09-09T08:29:44;4.70;;;0.90;;
57810;SDS011;43640;47.550;7.590;2022-09-09T08:31:47;3.53;;;1.27;;
57810;SDS011;43640;47.550;7.590;2022-09-09T08:33:48;3.38;;;0.90;;
57810;SDS011;43640;47.550;7.590;2022-09-09T08:35:53;2.72;;;0.70;;
57810;SDS011;43640;47.550;7.590;2022-09-09T08:37:54;2.35;;;0.70;;
57810;SDS011;43640;47.550;7.590;2022-09-09T08:39:56;4.63;;;1.05;;
57810;SDS011;43640;47.550;7.590;2022-09-09T08:46:26;3.38;;;0.82;;
57810;SDS011;43640;47.550;7.590;2022-09-09T08:50:36;3.58;;;1.20;;
57810;SDS011;43640;47.550;7.590;2022-09-09T08:54:49;3.42;;;1.00;;
57810;SDS011;43640;47.550;7.590;2022-09-09T08:56:53;2.38;;;0.82;;
57810;SDS011;43640;47.550;7.590;2022-09-09T08:58:55;2.45;;;0.88;;
57810;SDS011;43640;47.550;7.590;2022-09-09T09:01:15;4.50;;;0.80;;
57810;SDS011;43640;47.550;7.590;2022-09-09T09:05:47;2.08;;;0.90;;
57810;SDS011;43640;47.550;7.590;2022-09-09T09:07:54;2.85;;;0.70;;
57810;SDS011;43640;47.550;7.590;2022-09-09T09:12:00;2.10;;;0.57;;
57810;SDS011;43640;47.550;7.590;2022-09-09T09:14:21;1.35;;;0.70;;
57810;SDS011;43640;47.550;7.590;2022-09-09T09:17:25;1.65;;;0.50;;
57810;SDS011;43640;47.550;7.590;2022-09-09T09:18:55;4.18;;;0.75;;
57810;SDS011;43640;47.550;7.590;2022-09-09T09:21:16;1.20;;;0.50;;
57810;SDS011;43640;47.550;7.590;2022-09-09T09:23:23;3.53;;;0.60;;
57810;SDS011;43640;47.550;7.590;2022-09-09T09:25:27;5.32;;;1.20;;
57810;SDS011;43640;47.550;7.590;2022-09-09T09:29:45;4.47;;;2.88;;
57810;SDS011;43640;47.550;7.590;2022-09-09T09:32:11;3.45;;;1.00;;
57810;SDS011;43640;47.550;7.590;2022-09-09T09:34:15;4.38;;;0.95;;
57810;SDS011;43640;47.550;7.590;2022-09-09T09:36:16;2.00;;;0.80;;
57810;SDS011;43640;47.550;7.590;2022-09-09T09:38:19;4.50;;;0.85;;
57810;SDS011;43640;47.550;7.590;2022-09-09T09:40:48;4.28;;;0.90;;
57810;SDS011;43640;47.550;7.590;2022-09-09T09:42:54;1.23;;;0.63;;
57810;SDS011;43640;47.550;7.590;2022-09-09T09:45:06;1.95;;;0.90;;
57810;SDS011;43640;47.550;7.590;2022-09-09T09:49:09;4.57;;;0.70;;
57810;SDS011;43640;47.550;7.590;2022-09-09T09:51:11;3.63;;;0.80;;
57810;SDS011;43640;47.550;7.590;2022-09-09T09:53:18;1.73;;;0.55;;
57810;SDS011;43640;47.550;7.590;2022-09-09T09:55:21;2.53;;;0.70;;
57810;SDS011;43640;47.550;7.590;2022-09-09T09:57:28;1.33;;;0.70;;
57810;SDS011;43640;47.550;7.590;2022-09-09T09:59:34;1.83;;;0.60;;
57810;SDS011;43640;47.550;7.590;2022-09-09T10:01:40;3.63;;;0.60;;
57810;SDS011;43640;47.550;7.590;2022-09-09T10:03:49;1.77;;;0.60;;
57810;SDS011;43640;47.550;7.590;2022-09-09T10:05:51;4.13;;;0.80;;
57810;SDS011;43640;47.550;7.590;2022-09-09T10:10:08;2.67;;;0.60;;
57810;SDS011;43640;47.550;7.590;2022-09-09T10:14:20;1.98;;;0.70;;
57810;SDS011;43640;47.550;7.590;2022-09-09T10:20:45;1.75;;;0.70;;
57810;SDS011;43640;47.550;7.590;2022-09-09T10:22:52;3.92;;;0.80;;
57810;SDS011;43640;47.550;7.590;2022-09-09T10:29:27;3.42;;;0.70;;
57810;SDS011;43640;47.550;7.590;2022-09-09T10:33:41;1.63;;;0.75;;
57810;SDS011;43640;47.550;7.590;2022-09-09T10:35:48;2.50;;;0.60;;
57810;SDS011;43640;47.550;7.590;2022-09-09T10:40:41;1.25;;;0.57;;
57810;SDS011;43640;47.550;7.590;2022-09-09T10:42:17;1.88;;;0.60;;
57810;SDS011;43640;47.550;7.590;2022-09-09T10:44:42;3.78;;;0.90;;
57810;SDS011;43640;47.550;7.590;2022-09-09T10:53:54;2.03;;;0.60;;
57810;SDS011;43640;47.550;7.590;2022-09-09T10:56:11;2.63;;;0.50;;
57810;SDS011;43640;47.550;7.590;2022-09-09T10:58:48;1.50;;;0.50;;
57810;SDS011;43640;47.550;7.590;2022-09-09T11:00:54;2.15;;;0.73;;
57810;SDS011;43640;47.550;7.590;2022-09-09T11:03:00;2.15;;;0.50;;
57810;SDS011;43640;47.550;7.590;2022-09-09T11:05:21;1.58;;;0.60;;
57810;SDS011;43640;47.550;7.590;2022-09-09T11:07:38;1.90;;;0.70;;
57810;SDS011;43640;47.550;7.590;2022-09-09T11:09:42;1.60;;;0.60;;
57810;SDS011;43640;47.550;7.590;2022-09-09T11:11:46;4.35;;;0.80;;
57810;SDS011;43640;47.550;7.590;2022-09-09T11:15:54;1.65;;;0.68;;
57810;SDS011;43640;47.550;7.590;2022-09-09T11:17:59;1.42;;;0.73;;
57810;SDS011;43640;47.550;7.590;2022-09-09T11:20:02;2.38;;;0.60;;
57810;SDS011;43640;47.550;7.590;2022-09-09T11:24:38;3.22;;;0.85;;
57810;SDS011;43640;47.550;7.590;2022-09-09T11:26:38;1.58;;;0.68;;
57810;SDS011;43640;47.550;7.590;2022-09-09T11:31:15;2.47;;;0.60;;
57810;SDS011;43640;47.550;7.590;2022-09-09T11:36:25;0.73;;;0.43;;
57810;SDS011;43640;47.550;7.590;2022-09-09T11:42:24;4.15;;;0.70;;
57810;SDS011;43640;47.550;7.590;2022-09-09T11:44:27;1.60;;;0.60;;
57810;SDS011;43640;47.550;7.590;2022-09-09T11:46:33;2.05;;;0.60;;
57810;SDS011;43640;47.550;7.590;2022-09-09T11:48:37;4.20;;;0.60;;
57810;SDS011;43640;47.550;7.590;2022-09-09T11:50:39;1.23;;;0.47;;
57810;SDS011;43640;47.550;7.590;2022-09-09T11:54:46;3.95;;;0.80;;
57810;SDS011;43640;47.550;7.590;2022-09-09T11:56:47;2.97;;;0.70;;
57810;SDS011;43640;47.550;7.590;2022-09-09T12:00:56;2.90;;;0.80;;
57810;SDS011;43640;47.550;7.590;2022-09-09T12:02:58;1.80;;;0.60;;
57810;SDS011;43640;47.550;7.590;2022-09-09T12:05:07;4.20;;;0.90;;
57810;SDS011;43640;47.550;7.590;2022-09-09T12:07:28;2.65;;;1.05;;
57810;SDS011;43640;47.550;7.590;2022-09-09T12:09:38;3.13;;;0.77;;
57810;SDS011;43640;47.550;7.590;2022-09-09T12:11:43;2.13;;;0.70;;
57810;SDS011;43640;47.550;7.590;2022-09-09T12:13:52;1.52;;;0.70;;
57810;SDS011;43640;47.550;7.590;2022-09-09T12:15:54;1.70;;;0.65;;
57810;SDS011;43640;47.550;7.590;2022-09-09T12:17:57;1.60;;;0.60;;
57810;SDS011;43640;47.550;7.590;2022-09-09T12:20:14;2.25;;;0.60;;
57810;SDS011;43640;47.550;7.590;2022-09-09T12:22:27;1.60;;;0.40;;
57810;SDS011;43640;47.550;7.590;2022-09-09T12:24:35;2.20;;;0.40;;
57810;SDS011;43640;47.550;7.590;2022-09-09T12:26:40;2.05;;;0.68;;
57810;SDS011;43640;47.550;7.590;2022-09-09T12:31:00;1.45;;;0.52;;
57810;SDS011;43640;47.550;7.590;2022-09-09T12:33:13;2.05;;;0.63;;
57810;SDS011;43640;47.550;7.590;2022-09-09T12:39:29;1.23;;;0.60;;
57810;SDS011;43640;47.550;7.590;2022-09-09T12:41:32;2.45;;;0.68;;
57810;SDS011;43640;47.550;7.590;2022-09-09T12:43:33;0.98;;;0.57;;
57810;SDS011;43640;47.550;7.590;2022-09-09T12:45:34;0.98;;;0.40;;
57810;SDS011;43640;47.550;7.590;2022-09-09T12:47:41;2.67;;;0.60;;
57810;SDS011;43640;47.550;7.590;2022-09-09T12:49:47;1.98;;;0.47;;
57810;SDS011;43640;47.550;7.590;2022-09-09T12:51:50;1.60;;;0.47;;
57810;SDS011;43640;47.550;7.590;2022-09-09T12:53:52;3.05;;;0.47;;
57810;SDS011;43640;47.550;7.590;2022-09-09T12:55:57;1.45;;;0.40;;
57810;SDS011;43640;47.550;7.590;2022-09-09T12:57:59;1.60;;;0.40;;
57810;SDS011;43640;47.550;7.590;2022-09-09T13:04:33;2.88;;;0.57;;
57810;SDS011;43640;47.550;7.590;2022-09-09T13:06:34;1.02;;;0.40;;
57810;SDS011;43640;47.550;7.590;2022-09-09T13:08:36;1.70;;;0.70;;
57810;SDS011;43640;47.550;7.590;2022-09-09T13:10:39;1.50;;;0.38;;
57810;SDS011;43640;47.550;7.590;2022-09-09T13:13:03;2.42;;;0.50;;
57810;SDS011;43640;47.550;7.590;2022-09-09T13:15:09;1.10;;;0.45;;
57810;SDS011;43640;47.550;7.590;2022-09-09T13:17:20;2.83;;;0.50;;
57810;SDS011;43640;47.550;7.590;2022-09-09T13:19:22;2.25;;;0.60;;
57810;SDS011;43640;47.550;7.590;2022-09-09T13:21:31;2.25;;;0.50;;
57810;SDS011;43640;47.550;7.590;2022-09-09T13:23:33;1.30;;;0.50;;
57810;SDS011;43640;47.550;7.590;2022-09-09T13:25:36;0.82;;;0.40;;
57810;SDS011;43640;47.550;7.590;2022-09-09T13:29:55;1.80;;;0.50;;
57810;SDS011;43640;47.550;7.590;2022-09-09T13:32:12;0.93;;;0.40;;
57810;SDS011;43640;47.550;7.590;2022-09-09T13:34:30;0.88;;;0.30;;
57810;SDS011;43640;47.550;7.590;2022-09-09T13:36:32;1.48;;;0.30;;
57810;SDS011;43640;47.550;7.590;2022-09-09T13:38:38;1.13;;;0.40;;
57810;SDS011;43640;47.550;7.590;2022-09-09T13:40:39;1.27;;;0.40;;
57810;SDS011;43640;47.550;7.590;2022-09-09T13:42:41;1.58;;;0.35;;
57810;SDS011;43640;47.550;7.590;2022-09-09T13:44:43;2.85;;;0.50;;
57810;SDS011;43640;47.550;7.590;2022-09-09T13:46:47;1.27;;;0.45;;
57810;SDS011;43640;47.550;7.590;2022-09-09T13:49:02;0.55;;;0.20;;
57810;SDS011;43640;47.550;7.590;2022-09-09T13:51:03;1.95;;;0.80;;
57810;SDS011;43640;47.550;7.590;2022-09-09T13:53:08;2.00;;;0.55;;
57810;SDS011;43640;47.550;7.590;2022-09-09T13:55:10;1.35;;;0.57;;
57810;SDS011;43640;47.550;7.590;2022-09-09T13:57:14;0.52;;;0.30;;
57810;SDS011;43640;47.550;7.590;2022-09-09T13:59:17;2.58;;;1.05;;
57810;SDS011;43640;47.550;7.590;2022-09-09T14:01:20;1.17;;;0.40;;
57810;SDS011;43640;47.550;7.590;2022-09-09T14:03:26;1.10;;;0.40;;
57810;SDS011;43640;47.550;7.590;2022-09-09T14:05:27;1.90;;;0.60;;
57810;SDS011;43640;47.550;7.590;2022-09-09T14:07:30;2.00;;;0.50;;
57810;SDS011;43640;47.550;7.590;2022-09-09T14:09:33;2.90;;;1.08;;
57810;SDS011;43640;47.550;7.590;2022-09-09T14:11:34;2.10;;;0.40;;
57810;SDS011;43640;47.550;7.590;2022-09-09T14:13:35;1.77;;;0.60;;
57810;SDS011;43640;47.550;7.590;2022-09-09T14:15:38;1.10;;;0.47;;
57810;SDS011;43640;47.550;7.590;2022-09-09T14:17:40;1.75;;;0.60;;
57810;SDS011;43640;47.550;7.590;2022-09-09T14:19:41;1.60;;;0.40;;
57810;SDS011;43640;47.550;7.590;2022-09-09T14:21:46;2.17;;;0.45;;
57810;SDS011;43640;47.550;7.590;2022-09-09T14:23:47;1.58;;;0.47;;
57810;SDS011;43640;47.550;7.590;2022-09-09T14:25:49;1.83;;;0.50;;